createdAt,value
2022-12-18T00:01:07.222Z,100503.72
2022-12-18T00:03:37.453Z,100503.91
2022-12-18T00:06:04.612Z,100519.69
2022-12-18T00:08:31.255Z,100517.72
2022-12-18T00:11:06.943Z,100518.53
2022-12-18T00:13:34.348Z,100504.38
2022-12-18T00:16:06.405Z,100503.59
2022-12-18T00:18:33.703Z,100500.78
2022-12-18T00:21:02.105Z,100502.41
2022-12-18T00:23:29.417Z,100504.25
2022-12-18T00:25:59.658Z,100505.03
2022-12-18T00:28:26.238Z,100496.34
2022-12-18T00:31:10.133Z,100503.25
2022-12-18T00:33:37.844Z,100499.63
2022-12-18T00:36:13.772Z,100498.00
2022-12-18T00:38:41.280Z,100493.53
2022-12-18T00:41:10.164Z,100498.81
2022-12-18T00:43:38.546Z,100497.16
2022-12-18T00:46:05.831Z,100499.78
2022-12-18T00:48:33.338Z,100498.16
2022-12-18T00:50:59.888Z,100496.34
2022-12-18T00:53:26.468Z,100501.75
2022-12-18T00:55:53.004Z,100500.78
2022-12-18T00:58:19.897Z,100505.38
2022-12-18T01:00:46.508Z,100512.28
2022-12-18T01:03:16.191Z,100490.25
2022-12-18T01:05:43.226Z,100494.84
2022-12-18T01:08:09.971Z,100493.88
2022-12-18T01:10:36.691Z,100486.16
2022-12-18T01:13:03.308Z,100488.94
2022-12-18T01:15:29.882Z,100496.16
2022-12-18T01:17:56.408Z,100494.66
2022-12-18T01:20:23.225Z,100495.16
2022-12-18T01:22:49.786Z,100495.78
2022-12-18T01:25:16.419Z,100499.72
2022-12-18T01:27:43.155Z,100505.97
2022-12-18T01:30:10.184Z,100508.91
2022-12-18T01:32:36.733Z,100505.63
2022-12-18T01:35:03.453Z,100495.25
2022-12-18T01:37:30.082Z,100496.22
2022-12-18T01:39:56.644Z,100485.91
2022-12-18T01:42:23.641Z,100490.16
2022-12-18T01:45:02.281Z,100496.41
2022-12-18T01:47:34.733Z,100492.13
2022-12-18T01:50:07.200Z,100499.03
2022-12-18T01:52:35.483Z,100501.81
2022-12-18T01:55:04.060Z,100509.56
2022-12-18T01:57:30.885Z,100513.16
2022-12-18T02:00:02.598Z,100519.75
2022-12-18T02:02:31.374Z,100516.94
2022-12-18T02:05:00.193Z,100508.25
2022-12-18T02:07:32.869Z,100509.91
2022-12-18T02:10:28.365Z,100507.41
2022-12-18T02:13:14.771Z,100510.88
2022-12-18T02:16:12.004Z,100511.19
2022-12-18T02:18:44.233Z,100505.28
2022-12-18T02:21:47.117Z,100484.13
2022-12-18T02:24:36.156Z,100493.34
2022-12-18T02:27:07.613Z,100499.06
2022-12-18T02:29:41.462Z,100492.69
2022-12-18T02:32:14.983Z,100485.47
2022-12-18T02:34:43.601Z,100494.84
2022-12-18T02:37:14.964Z,100502.72
2022-12-18T02:39:44.434Z,100504.69
2022-12-18T02:42:12.313Z,100509.28
2022-12-18T02:44:46.767Z,100500.75
2022-12-18T02:47:14.859Z,100502.41
2022-12-18T02:49:49.890Z,100502.06
2022-12-18T02:52:38.280Z,100515.56
2022-12-18T02:55:27.604Z,100510.81
2022-12-18T02:58:05.600Z,100512.94
2022-12-18T03:00:36.653Z,100521.19
2022-12-18T03:03:12.452Z,100517.56
2022-12-18T03:05:44.336Z,100519.56
2022-12-18T03:08:20.171Z,100511.34
2022-12-18T03:10:54.549Z,100517.09
2022-12-18T03:13:44.193Z,100517.09
2022-12-18T03:16:16.228Z,100512.66
2022-12-18T03:18:51.236Z,100512.66
2022-12-18T03:21:23.279Z,100508.72
2022-12-18T03:23:52.650Z,100513.97
2022-12-18T03:26:23.332Z,100511.66
2022-12-18T03:28:58.589Z,100506.72
2022-12-18T03:31:28.782Z,100512.31
2022-12-18T03:33:59.940Z,100502.94
2022-12-18T03:36:27.417Z,100500.63
2022-12-18T03:38:54.073Z,100501.09
2022-12-18T03:41:39.014Z,100508.66
2022-12-18T03:44:11.576Z,100494.50
2022-12-18T03:46:56.199Z,100492.16
2022-12-18T03:49:35.651Z,100500.56
2022-12-18T03:52:10.777Z,100504.31
2022-12-18T03:54:38.379Z,100506.13
2022-12-18T03:57:12.682Z,100515.28
2022-12-18T03:59:41.039Z,100513.16
2022-12-18T04:02:09.215Z,100503.97
2022-12-18T04:04:38.398Z,100495.59
2022-12-18T04:07:06.369Z,100503.94
2022-12-18T04:09:35.246Z,100500.63
2022-12-18T04:12:01.993Z,100499.31
2022-12-18T04:14:28.565Z,100492.75
2022-12-18T04:16:55.096Z,100497.47
2022-12-18T04:19:21.754Z,100499.44
2022-12-18T04:21:48.273Z,100491.69
2022-12-18T04:24:14.786Z,100497.94
2022-12-18T04:26:41.328Z,100502.53
2022-12-18T04:29:07.886Z,100493.16
2022-12-18T04:31:34.540Z,100493.31
2022-12-18T04:34:01.412Z,100487.41
2022-12-18T04:36:28.433Z,100493.78
2022-12-18T04:38:54.944Z,100499.34
2022-12-18T04:41:21.883Z,100497.88
2022-12-18T04:43:48.411Z,100492.94
2022-12-18T04:46:15.269Z,100491.56
2022-12-18T04:48:41.944Z,100497.13
2022-12-18T04:51:08.665Z,100498.13
2022-12-18T04:53:35.286Z,100503.69
2022-12-18T04:56:10.885Z,100507.59
2022-12-18T04:58:38.473Z,100508.72
2022-12-18T05:01:05.572Z,100518.72
2022-12-18T05:03:32.569Z,100525.91
2022-12-18T05:05:59.120Z,100527.88
2022-12-18T05:08:25.712Z,100528.84
2022-12-18T05:11:10.019Z,100519.31
2022-12-18T05:13:37.716Z,100528.03
2022-12-18T05:16:05.778Z,100519.31
2022-12-18T05:18:32.754Z,100515.53
2022-12-18T05:20:59.434Z,100520.56
2022-12-18T05:23:27.091Z,100516.22
2022-12-18T05:26:01.193Z,100523.06
2022-12-18T05:28:30.665Z,100521.72
2022-12-18T05:30:59.812Z,100531.00
2022-12-18T05:33:28.479Z,100535.03
2022-12-18T05:35:56.835Z,100541.56
2022-12-18T05:38:25.458Z,100546.31
2022-12-18T05:40:53.384Z,100551.31
2022-12-18T05:43:22.717Z,100550.25
2022-12-18T05:45:50.309Z,100554.44
2022-12-18T05:48:17.900Z,100546.88
2022-12-18T05:50:48.975Z,100546.22
2022-12-18T05:53:20.307Z,100541.56
2022-12-18T05:55:47.554Z,100544.31
2022-12-18T05:58:15.388Z,100545.44
2022-12-18T06:00:44.201Z,100538.44
2022-12-18T06:03:12.189Z,100534.63
2022-12-18T06:05:41.551Z,100532.38
2022-12-18T06:08:08.826Z,100528.59
2022-12-18T06:10:36.121Z,100537.66
2022-12-18T06:13:02.740Z,100539.22
2022-12-18T06:15:29.293Z,100554.50
2022-12-18T06:17:56.010Z,100563.38
2022-12-18T06:20:22.662Z,100567.09
2022-12-18T06:22:49.273Z,100571.50
2022-12-18T06:25:16.546Z,100573.41
2022-12-18T06:27:43.169Z,100577.59
2022-12-18T06:30:11.458Z,100588.09
2022-12-18T06:32:38.140Z,100596.28
2022-12-18T06:35:05.091Z,100595.78
2022-12-18T06:37:32.792Z,100593.66
2022-12-18T06:39:59.449Z,100603.69
2022-12-18T06:42:26.245Z,100591.91
2022-12-18T06:44:52.941Z,100602.09
2022-12-18T06:47:19.804Z,100599.31
2022-12-18T06:49:46.341Z,100592.41
2022-12-18T06:52:13.042Z,100601.59
2022-12-18T06:54:39.567Z,100601.00
2022-12-18T06:57:06.167Z,100593.31
2022-12-18T06:59:32.724Z,100597.94
2022-12-18T07:01:59.406Z,100606.31
2022-12-18T07:04:31.338Z,100609.47
2022-12-18T07:06:58.560Z,100608.81
2022-12-18T07:09:25.634Z,100601.78
2022-12-18T07:11:53.069Z,100599.50
2022-12-18T07:14:19.693Z,100599.50
2022-12-18T07:16:46.266Z,100593.94
2022-12-18T07:19:12.897Z,100587.84
2022-12-18T07:21:39.629Z,100598.88
2022-12-18T07:24:06.941Z,100596.91
2022-12-18T07:26:33.514Z,100596.56
2022-12-18T07:29:00.214Z,100607.09
2022-12-18T07:31:27.190Z,100593.78
2022-12-18T07:33:54.590Z,100608.41
2022-12-18T07:36:24.215Z,100607.63
2022-12-18T07:38:52.698Z,100609.91
2022-12-18T07:41:19.966Z,100603.34
2022-12-18T07:43:47.164Z,100606.63
2022-12-18T07:46:15.128Z,100595.97
2022-12-18T07:48:43.413Z,100610.13
2022-12-18T07:51:13.492Z,100595.97
2022-12-18T07:53:41.309Z,100597.28
2022-12-18T07:56:28.302Z,100588.06
2022-12-18T07:58:56.113Z,100593.84
2022-12-18T08:01:22.828Z,100603.22
2022-12-18T08:03:50.144Z,100600.28
2022-12-18T08:06:18.992Z,100595.31
2022-12-18T08:08:45.576Z,100594.34
2022-12-18T08:11:12.147Z,100590.88
2022-12-18T08:13:39.041Z,100599.59
2022-12-18T08:16:08.347Z,100598.94
2022-12-18T08:18:36.820Z,100605.03
2022-12-18T08:21:24.035Z,100615.41
2022-12-18T08:23:52.825Z,100605.69
2022-12-18T08:26:21.070Z,100604.69
2022-12-18T08:28:48.710Z,100606.84
2022-12-18T08:31:16.295Z,100607.66
2022-12-18T08:33:43.697Z,100601.88
2022-12-18T08:36:11.153Z,100602.22
2022-12-18T08:38:38.312Z,100587.06
2022-12-18T08:41:07.218Z,100583.63
2022-12-18T08:43:52.794Z,100587.59
2022-12-18T08:46:21.237Z,100589.56
2022-12-18T08:48:48.567Z,100593.66
2022-12-18T08:51:18.156Z,100589.56
2022-12-18T08:53:48.230Z,100586.09
2022-12-18T08:56:15.550Z,100579.53
2022-12-18T08:58:42.667Z,100581.84
2022-12-18T09:01:11.714Z,100587.28
2022-12-18T09:03:39.288Z,100598.47
2022-12-18T09:06:06.990Z,100585.78
2022-12-18T09:08:37.613Z,100591.41
2022-12-18T09:11:04.458Z,100605.22
2022-12-18T09:13:31.013Z,100602.91
2022-12-18T09:15:57.539Z,100599.63
2022-12-18T09:18:25.375Z,100600.59
2022-12-18T09:20:53.773Z,100585.28
2022-12-18T09:23:21.338Z,100585.78
2022-12-18T09:25:48.261Z,100593.34
2022-12-18T09:28:19.213Z,100585.94
2022-12-18T09:30:50.360Z,100597.81
2022-12-18T09:33:18.166Z,100589.72
2022-12-18T09:35:46.229Z,100580.81
2022-12-18T09:38:16.838Z,100578.81
2022-12-18T09:40:50.428Z,100580.81
2022-12-18T09:43:38.483Z,100578.03
2022-12-18T09:46:08.870Z,100578.53
2022-12-18T09:48:45.800Z,100576.84
2022-12-18T09:51:30.300Z,100575.41
2022-12-18T09:54:04.030Z,100572.44
2022-12-18T09:56:36.092Z,100576.88
2022-12-18T09:59:04.499Z,100576.88
2022-12-18T10:01:41.475Z,100586.75
2022-12-18T10:04:11.014Z,100586.91
2022-12-18T10:06:37.731Z,100575.88
2022-12-18T10:09:19.466Z,100565.66
2022-12-18T10:11:55.170Z,100570.91
2022-12-18T10:14:28.541Z,100566.47
2022-12-18T10:17:25.216Z,100569.59
2022-12-18T10:19:57.354Z,100560.34
2022-12-18T10:22:37.591Z,100556.41
2022-12-18T10:25:16.693Z,100554.78
2022-12-18T10:27:43.574Z,100558.38
2022-12-18T10:30:18.570Z,100556.38
2022-12-18T10:32:45.260Z,100538.22
2022-12-18T10:35:29.064Z,100532.59
2022-12-18T10:38:01.581Z,100542.00
2022-12-18T10:40:28.475Z,100536.53
2022-12-18T10:43:14.205Z,100525.19
2022-12-18T10:45:41.199Z,100517.63
2022-12-18T10:48:22.646Z,100511.16
2022-12-18T10:53:42.614Z,100511.16
2022-12-18T10:56:09.936Z,100512.78
2022-12-18T10:58:39.833Z,100510.94
2022-12-18T11:01:11.713Z,100507.53
2022-12-18T11:03:44.524Z,100507.06
2022-12-18T11:06:16.788Z,100509.47
2022-12-18T11:08:57.896Z,100500.53
2022-12-18T11:11:25.844Z,100494.56
2022-12-18T11:13:58.560Z,100504.31
2022-12-18T11:16:25.383Z,100508.63
2022-12-18T11:18:52.119Z,100502.34
2022-12-18T11:21:18.683Z,100490.94
2022-12-18T11:23:52.643Z,100485.66
2022-12-18T11:26:19.992Z,100489.41
2022-12-18T11:29:08.096Z,100498.13
2022-12-18T11:31:34.817Z,100486.50
2022-12-18T11:34:29.108Z,100480.50
2022-12-18T11:36:58.606Z,100480.28
2022-12-18T11:39:46.638Z,100483.25
2022-12-18T11:42:34.193Z,100482.59
2022-12-18T11:45:16.132Z,100485.25
2022-12-18T11:47:42.774Z,100491.31
2022-12-18T11:50:17.094Z,100484.06
2022-12-18T11:52:43.854Z,100483.59
2022-12-18T11:55:32.317Z,100477.97
2022-12-18T11:58:53.485Z,100483.34
2022-12-18T12:01:47.392Z,100470.81
2022-12-18T12:04:32.589Z,100466.16
2022-12-18T12:07:10.976Z,100462.81
2022-12-18T12:09:49.280Z,100461.72
2022-12-18T12:12:23.123Z,100455.41
2022-12-18T12:15:32.524Z,100459.59
2022-12-18T12:18:26.705Z,100456.31
2022-12-18T12:21:11.228Z,100448.63
2022-12-18T12:23:53.042Z,100453.16
2022-12-18T12:26:30.876Z,100457.28
2022-12-18T12:29:43.849Z,100452.06
2022-12-18T12:32:52.163Z,100447.59
2022-12-18T12:35:45.319Z,100444.75
2022-12-18T12:38:21.086Z,100448.13
2022-12-18T12:41:03.349Z,100435.66
2022-12-18T12:43:50.463Z,100433.25
2022-12-18T12:46:22.375Z,100432.97
2022-12-18T12:48:58.736Z,100434.28
2022-12-18T12:51:33.102Z,100434.06
2022-12-18T12:54:02.350Z,100421.94
2022-12-18T12:56:43.380Z,100426.22
2022-12-18T12:59:47.427Z,100417.66
2022-12-18T13:02:51.561Z,100411.34
2022-12-18T13:05:31.368Z,100410.19
2022-12-18T13:08:07.176Z,100401.03
2022-12-18T13:10:43.457Z,100402.66
2022-12-18T13:13:17.344Z,100397.38
2022-12-18T13:16:06.170Z,100401.88
2022-12-18T13:18:34.997Z,100396.81
2022-12-18T13:21:03.743Z,100396.63
2022-12-18T13:23:40.316Z,100398.25
2022-12-18T13:26:07.544Z,100395.44
2022-12-18T13:28:34.832Z,100384.84
2022-12-18T13:31:02.592Z,100384.31
2022-12-18T13:33:29.745Z,100389.38
2022-12-18T13:36:17.395Z,100393.50
2022-12-18T13:38:45.715Z,100390.72
2022-12-18T13:41:18.564Z,100386.69
2022-12-18T13:44:11.362Z,100376.16
2022-12-18T13:46:45.578Z,100367.66
2022-12-18T13:49:15.269Z,100371.78
2022-12-18T13:51:54.542Z,100378.88
2022-12-18T13:54:40.087Z,100378.25
2022-12-18T13:57:32.508Z,100378.88
2022-12-18T14:00:13.150Z,100372.19
2022-12-18T14:02:40.672Z,100378.09
2022-12-18T14:05:25.083Z,100377.47
2022-12-18T14:07:53.619Z,100378.09
2022-12-18T14:10:42.605Z,100375.47
2022-12-18T14:13:12.263Z,100371.00
2022-12-18T14:15:48.568Z,100356.94
2022-12-18T14:18:21.059Z,100367.78
2022-12-18T14:20:52.569Z,100365.94
2022-12-18T14:23:36.357Z,100361.66
2022-12-18T14:26:20.897Z,100366.56
2022-12-18T14:28:47.601Z,100365.78
2022-12-18T14:31:27.503Z,100367.13
2022-12-18T14:33:55.116Z,100384.88
2022-12-18T14:36:24.885Z,100382.03
2022-12-18T14:38:56.933Z,100388.97
2022-12-18T14:41:24.977Z,100378.38
2022-12-18T14:43:53.500Z,100378.00
2022-12-18T14:46:44.003Z,100379.00
2022-12-18T14:49:31.048Z,100378.38
2022-12-18T14:52:07.304Z,100367.78
2022-12-18T14:54:37.949Z,100364.25
2022-12-18T14:57:24.388Z,100364.00
2022-12-18T14:59:51.897Z,100362.38
2022-12-18T15:02:27.896Z,100368.84
2022-12-18T15:05:13.486Z,100362.75
2022-12-18T15:07:51.440Z,100364.00
2022-12-18T15:10:24.369Z,100359.91
2022-12-18T15:13:09.400Z,100364.13
2022-12-18T15:15:38.908Z,100365.78
2022-12-18T15:18:18.759Z,100365.16
2022-12-18T15:20:49.695Z,100365.97
2022-12-18T15:23:24.704Z,100360.66
2022-12-18T15:26:12.887Z,100362.50
2022-12-18T15:28:56.505Z,100360.47
2022-12-18T15:31:32.442Z,100365.41
2022-12-18T15:34:00.272Z,100360.72
2022-12-18T15:36:30.678Z,100357.88
2022-12-18T15:39:04.786Z,100363.00
2022-12-18T15:41:36.922Z,100363.63
2022-12-18T15:44:21.920Z,100360.59
2022-12-18T15:46:48.460Z,100365.72
2022-12-18T15:49:15.036Z,100366.34
2022-12-18T15:51:41.745Z,100369.78
2022-12-18T15:54:14.097Z,100373.09
2022-12-18T15:56:59.918Z,100381.66
2022-12-18T15:59:27.562Z,100378.63
2022-12-18T16:01:54.372Z,100371.31
2022-12-18T16:04:23.354Z,100372.56
2022-12-18T16:07:13.967Z,100371.53
2022-12-18T16:09:37.901Z,100381.34
2022-12-18T16:12:05.040Z,100378.88
2022-12-18T16:14:32.815Z,100381.91
2022-12-18T16:17:04.622Z,100380.66
2022-12-18T16:19:31.136Z,100379.75
2022-12-18T16:21:59.150Z,100376.75
2022-12-18T16:24:31.332Z,100374.44
2022-12-18T16:27:00.400Z,100379.50
2022-12-18T16:29:28.784Z,100372.13
2022-12-18T16:32:00.133Z,100373.34
2022-12-18T16:34:29.321Z,100366.81
2022-12-18T16:37:08.374Z,100361.53
2022-12-18T16:39:36.297Z,100358.31
2022-12-18T16:42:20.532Z,100351.84
2022-12-18T16:44:49.167Z,100350.63
2022-12-18T16:47:16.498Z,100350.00
2022-12-18T16:49:45.795Z,100346.16
2022-12-18T16:52:12.644Z,100335.34
2022-12-18T16:54:39.294Z,100340.47
2022-12-18T16:57:05.873Z,100339.06
2022-12-18T16:59:35.809Z,100323.00
2022-12-18T17:02:06.165Z,100325.88
2022-12-18T17:04:33.722Z,100323.25
2022-12-18T17:07:00.277Z,100316.31
2022-12-18T17:09:26.860Z,100314.69
2022-12-18T17:11:54.587Z,100315.28
2022-12-18T17:14:24.537Z,100316.13
2022-12-18T17:17:19.364Z,100308.81
2022-12-18T17:19:38.843Z,100302.69
2022-12-18T17:22:05.633Z,100299.03
2022-12-18T17:24:35.033Z,100310.44
2022-12-18T17:27:02.961Z,100303.94
2022-12-18T17:29:29.554Z,100306.56
2022-12-18T17:31:56.073Z,100311.88
2022-12-18T17:34:24.356Z,100312.06
2022-12-18T17:36:51.108Z,100314.53
2022-12-18T17:39:19.761Z,100310.06
2022-12-18T17:41:46.836Z,100313.13
2022-12-18T17:44:13.813Z,100308.03
2022-12-18T17:46:40.800Z,100308.84
2022-12-18T17:49:07.525Z,100303.34
2022-12-18T17:51:34.224Z,100301.53
2022-12-18T17:54:01.160Z,100301.53
2022-12-18T17:56:27.839Z,100296.25
2022-12-18T17:58:54.520Z,100293.38
2022-12-18T18:01:24.482Z,100296.88
2022-12-18T18:03:52.884Z,100287.91
2022-12-18T18:06:21.159Z,100288.53
2022-12-18T18:08:48.413Z,100287.28
2022-12-18T18:11:36.871Z,100276.53
2022-12-18T18:14:07.886Z,100281.59
2022-12-18T18:16:41.246Z,100280.19
2022-12-18T18:19:16.820Z,100279.97
2022-12-18T18:21:45.223Z,100273.47
2022-12-18T18:24:13.526Z,100275.69
2022-12-18T18:26:41.628Z,100280.81
2022-12-18T18:29:09.752Z,100286.91
2022-12-18T18:31:40.894Z,100291.00
2022-12-18T18:34:10.257Z,100290.22
2022-12-18T18:36:36.819Z,100300.97
2022-12-18T18:39:03.420Z,100304.66
2022-12-18T18:41:30.636Z,100302.38
2022-12-18T18:43:58.468Z,100300.13
2022-12-18T18:46:26.345Z,100297.47
2022-12-18T18:48:53.255Z,100287.28
2022-12-18T18:51:21.708Z,100282.84
2022-12-18T18:53:52.193Z,100273.03
2022-12-18T18:59:08.649Z,100281.44
2022-12-18T19:01:35.384Z,100274.31
2022-12-18T19:04:05.083Z,100271.84
2022-12-18T19:06:31.718Z,100285.25
2022-12-18T19:08:59.329Z,100274.88
2022-12-18T19:11:45.678Z,100269.19
2022-12-18T19:14:14.891Z,100261.69
2022-12-18T19:16:43.501Z,100254.53
2022-12-18T19:19:11.323Z,100256.78
2022-12-18T19:21:38.360Z,100255.16
2022-12-18T19:24:06.031Z,100256.78
2022-12-18T19:26:32.650Z,100251.50
2022-12-18T19:29:04.680Z,100244.16
2022-12-18T19:31:35.526Z,100243.78
2022-12-18T19:34:04.292Z,100236.22
2022-12-18T19:36:32.384Z,100248.66
2022-12-18T19:39:00.945Z,100248.25
2022-12-18T19:41:30.631Z,100256.03
2022-12-18T19:43:58.720Z,100261.72
2022-12-18T19:46:25.489Z,100242.16
2022-12-18T19:48:52.478Z,100249.94
2022-12-18T19:51:26.027Z,100249.09
2022-12-18T19:53:58.428Z,100255.03
2022-12-18T19:56:28.481Z,100251.75
2022-12-18T19:58:55.571Z,100246.66
2022-12-18T20:01:24.202Z,100255.63
2022-12-18T20:03:54.384Z,100246.03
2022-12-18T20:06:51.582Z,100242.97
2022-12-18T20:09:19.204Z,100242.38
2022-12-18T20:11:46.024Z,100250.72
2022-12-18T20:14:14.408Z,100254.00
2022-12-18T20:16:43.590Z,100242.59
2022-12-18T20:19:12.125Z,100248.34
2022-12-18T20:21:38.813Z,100249.56
2022-12-18T20:24:07.004Z,100243.03
2022-12-18T20:26:33.849Z,100248.78
2022-12-18T20:29:00.637Z,100252.88
2022-12-18T20:31:27.275Z,100252.47
2022-12-18T20:34:00.331Z,100249.41
2022-12-18T20:36:28.384Z,100242.47
2022-12-18T20:38:59.133Z,100248.81
2022-12-18T20:41:35.040Z,100241.88
2022-12-18T20:44:21.793Z,100249.22
2022-12-18T20:46:55.520Z,100245.53
2022-12-18T20:49:23.773Z,100257.38
2022-12-18T20:51:52.410Z,100259.63
2022-12-18T20:54:19.126Z,100251.66
2022-12-18T20:56:45.678Z,100255.34
2022-12-18T20:59:12.331Z,100257.38
2022-12-18T21:01:45.202Z,100258.41
2022-12-18T21:04:15.900Z,100256.16
2022-12-18T21:06:49.428Z,100258.19
2022-12-18T21:09:20.424Z,100264.69
2022-12-18T21:12:05.640Z,100261.41
2022-12-18T21:14:32.501Z,100255.50
2022-12-18T21:17:02.055Z,100252.84
2022-12-18T21:19:29.824Z,100255.50
2022-12-18T21:21:57.387Z,100256.28
2022-12-18T21:24:24.697Z,100258.94
2022-12-18T21:26:54.127Z,100262.22
2022-12-18T21:29:23.451Z,100261.44
2022-12-18T21:31:52.078Z,100263.47
2022-12-18T21:34:28.103Z,100267.19
2022-12-18T21:36:56.494Z,100257.63
2022-12-18T21:39:24.600Z,100251.72
2022-12-18T21:42:10.234Z,100256.22
2022-12-18T21:44:41.503Z,100248.88
2022-12-18T21:47:22.070Z,100253.75
2022-12-18T21:49:53.089Z,100248.09
2022-12-18T21:52:22.155Z,100244.84
2022-12-18T21:55:06.168Z,100247.91
2022-12-18T21:57:35.739Z,100255.47
2022-12-18T22:00:03.114Z,100249.94
2022-12-18T22:02:29.962Z,100246.09
2022-12-18T22:04:56.676Z,100251.81
2022-12-18T22:07:23.592Z,100244.06
2022-12-18T22:09:50.139Z,100239.16
2022-12-18T22:12:35.678Z,100245.09
2022-12-18T22:15:06.915Z,100229.38
2022-12-18T22:17:33.483Z,100233.47
2022-12-18T22:20:00.039Z,100234.06
2022-12-18T22:22:26.894Z,100229.78
2022-12-18T22:24:53.475Z,100236.13
2022-12-18T22:27:20.040Z,100236.75
2022-12-18T22:30:04.876Z,100234.47
2022-12-18T22:32:35.888Z,100232.66
2022-12-18T22:35:09.133Z,100231.00
2022-12-18T22:37:39.431Z,100225.91
2022-12-18T22:40:07.346Z,100215.28
2022-12-18T22:42:34.231Z,100212.63
2022-12-18T22:45:00.846Z,100206.91
2022-12-18T22:47:30.119Z,100204.88
2022-12-18T22:49:57.625Z,100196.91
2022-12-18T22:52:24.321Z,100197.53
2022-12-18T22:54:53.648Z,100189.78
2022-12-18T22:57:22.025Z,100186.91
2022-12-18T22:59:49.702Z,100190.16
2022-12-18T23:02:17.886Z,100183.84
2022-12-18T23:04:45.029Z,100178.34
2022-12-18T23:07:11.707Z,100189.75
2022-12-18T23:09:39.613Z,100182.41
2022-12-18T23:12:06.620Z,100190.38
2022-12-18T23:14:33.333Z,100183.03
2022-12-18T23:17:00.012Z,100182.22
2022-12-18T23:19:26.841Z,100181.19
2022-12-18T23:21:54.874Z,100182.81
2022-12-18T23:24:25.410Z,100181.19
2022-12-18T23:26:52.147Z,100183.84
2022-12-18T23:29:18.702Z,100185.88
2022-12-18T23:31:45.381Z,100178.34
2022-12-18T23:34:13.578Z,100178.34
2022-12-18T23:36:46.462Z,100177.91
2022-12-18T23:39:22.379Z,100169.75
2022-12-18T23:41:56.452Z,100165.06
2022-12-18T23:44:23.077Z,100156.88
2022-12-18T23:46:49.730Z,100155.44
2022-12-18T23:49:16.301Z,100156.66
2022-12-18T23:51:42.916Z,100147.69
2022-12-18T23:54:10.482Z,100143.78
2022-12-18T23:56:37.066Z,100155.00
2022-12-18T23:59:03.616Z,100150.28
